Flight Track Log - Related Links

Times and Time Zones

All times are in EDT time to prevent confusion due to time zone crossing. See the SWA1718 flight status page for this flight to view local times or setup timezone preferences in your user account.

Time Position Orientation Groundspeed Altitude Reporting Facility
EDT Latitude Longitude Course Direction KTS MPH feet Rate Location/Type
Wed 06:59:12 PM 39.9069 -104.6508 77° East 189 217 7,300  Level Denver Center
Wed 07:00:14 PM 39.9214 -104.5683 77° East 229 264 10,000 1,306 Climbing Denver Center
Wed 07:01:16 PM 39.9414 -104.4661 76° East 297 342 10,000 1,306 Level Denver Center
Wed 07:02:18 PM 39.9344 -104.3428 94° East 317 365 12,700 2,419 Climbing Denver Center
Wed 07:03:20 PM 39.9244 -104.2167 96° East 347 399 15,000 2,371 Climbing Denver Center
Wed 07:04:22 PM 39.9131 -104.0828 96° East 369 425 17,600 2,274 Climbing Denver Center
Wed 07:05:24 PM 39.9008 -103.9381 96° East 374 430 19,700 1,742 Climbing Denver Center
Wed 07:06:26 PM 39.8886 -103.7939 96° East 400 460 21,200 1,805 Climbing Denver Center
Wed 07:07:27 PM 39.8950 -103.6397 87° East 412 474 23,400 2,049 Climbing Denver Center
Wed 07:08:29 PM 39.9122 -103.4842 82° East 429 494 25,400 1,742 Climbing Denver Center
Wed 07:09:31 PM 39.9294 -103.3267 82° East 434 499 27,000 1,355 Climbing Denver Center
Wed 07:10:33 PM 39.9481 -103.1636 81° East 450 518 28,200 1,210 Climbing Denver Center
Wed 07:11:35 PM 39.9661 -102.9958 82° East 462 532 29,500 1,355 Climbing Denver Center
Wed 07:12:37 PM 39.9853 -102.8244 82° East 472 543 31,000 1,268 Climbing Denver Center
Wed 07:13:38 PM 40.0061 -102.6386 82° East 476 548 32,100 1,122 Climbing Denver Center
Wed 07:14:40 PM 40.0250 -102.4403 83° East 492 566 33,300 1,258 Climbing Denver Center
Wed 07:15:42 PM 40.0428 -102.2722 82° East 490 564 34,700 823 Climbing Denver Center
Wed 07:16:44 PM 40.0631 -102.0778 82° East 486 559 35,000 145 Climbing Denver Center
Wed 07:17:46 PM 40.0800 -101.9125 82° East 483 556 35,000  Level Denver Center
Wed 07:18:48 PM 40.0956 -101.7447 83° East 486 559 35,000  Level Denver Center
Wed 07:19:50 PM 40.1147 -101.5494 83° East 487 560 35,000  Level Denver Center
Wed 07:20:51 PM 40.1311 -101.3808 83° East 490 564 35,000  Level Denver Center
Wed 07:21:53 PM 40.1497 -101.1853 83° East 489 563 35,000  Level Denver Center
Wed 07:22:55 PM 40.1650 -101.0181 83° East 487 560 35,000  Level Denver Center
Wed 07:23:57 PM 40.1828 -100.8222 83° East 487 560 35,000  Level Denver Center
Wed 07:24:59 PM 40.1986 -100.6531 83° East 491 565 35,000  Level Denver Center
Wed 07:26:01 PM 40.2061 -100.4550 87° East 489 563 35,000  Level Denver Center
Wed 07:27:03 PM 40.2092 -100.2864 89° East 488 562 35,000  Level Denver Center
Wed 07:28:05 PM 40.2108 -100.0886 89° East 490 564 35,000  Level Denver Center
Wed 07:29:07 PM 40.2136 -99.9186 89° East 490 564 35,000  Level Denver Center
Wed 07:30:09 PM 40.2158 -99.7306 89° East 482 555 35,000  Level Denver Center
Wed 07:31:11 PM 40.2175 -99.5558 89° East 481 554 35,000  Level Denver Center
Wed 07:32:12 PM 40.2189 -99.3803 89° East 483 556 35,000  Level Denver Center
Wed 07:33:14 PM 40.2208 -99.2067 89° East 479 551 35,000  Level Denver Center
Wed 07:34:16 PM 40.2217 -99.0319 90° East 481 554 35,000  Level Denver Center
Wed 07:35:07 PM 40.2219 -98.8603 90° East 479 551 35,000  Level Minneapolis Center
Wed 07:36:08 PM 40.2225 -98.6914 90° East 471 542 35,000  Level Minneapolis Center
Wed 07:37:22 PM 40.2222 -98.5233 90° East 466 536 35,000  Level Minneapolis Center
Wed 07:38:25 PM 40.2219 -98.3228 90° East 462 532 35,000 339 Level Minneapolis Center
Wed 07:39:26 PM 40.2222 -98.1547 90° East 463 533 35,700 976 Climbing Minneapolis Center
Wed 07:40:28 PM 40.2219 -97.9917 90° East 454 522 37,000 629 Climbing Minneapolis Center
Wed 07:41:30 PM 40.2200 -97.7989 91° East 445 512 37,000  Level Minneapolis Center
Wed 07:42:32 PM 40.2211 -97.6397 89° East 441 507 37,000  Level Minneapolis Center
Wed 07:43:34 PM 40.2219 -97.4794 90° East 440 506 37,000  Level Minneapolis Center
Wed 07:44:35 PM 40.2231 -97.3225 89° East 441 507 37,000  Level Minneapolis Center
Wed 07:45:37 PM 40.2222 -97.1594 90° East 446 513 37,000  Level Minneapolis Center
Wed 07:46:39 PM 40.2228 -96.9939 90° East 452 520 37,000  Level Minneapolis Center
Wed 07:47:41 PM 40.2219 -96.7950 90° East 457 526 37,000  Level Minneapolis Center
Wed 07:48:42 PM 40.2217 -96.6286 90° East 459 528 37,000  Level Minneapolis Center
Wed 07:49:44 PM 40.2206 -96.4614 90° East 460 529 37,000  Level Minneapolis Center
Wed 07:50:46 PM 40.2192 -96.2975 91° East 457 526 37,000  Level Minneapolis Center
Wed 07:51:48 PM 40.2175 -96.1294 91° East 460 529 37,000  Level Minneapolis Center
Wed 07:52:49 PM 40.2164 -95.9633 90° East 461 531 37,000  Level Minneapolis Center
Wed 07:53:51 PM 40.2158 -95.7928 90° East 467 537 37,000  Level Minneapolis Center
Wed 07:54:53 PM 40.2131 -95.5911 91° East 465 535 37,000  Level Minneapolis Center
Wed 07:55:55 PM 40.2106 -95.4239 91° East 462 532 37,000  Level Minneapolis Center
Wed 07:56:56 PM 40.2083 -95.2567 91° East 462 532 37,000  Level Minneapolis Center
Wed 07:57:58 PM 40.2067 -95.0922 91° East 457 526 37,000  Level Minneapolis Center
Wed 07:59:00 PM 40.2022 -94.9269 92° East 457 526 37,000  Level Minneapolis Center
Wed 08:00:01 PM 40.1997 -94.7936 91° East 457 526 37,000  Level Minneapolis Center
Wed 08:01:04 PM 40.1947 -94.5631 92° East 456 525 37,000  Level Minneapolis Center
Wed 08:02:05 PM 40.1906 -94.3994 92° East 457 526 37,000  Level Minneapolis Center
Wed 08:03:07 PM 40.1872 -94.2372 91° East 455 524 37,000  Level Minneapolis Center
Wed 08:04:12 PM 40.1814 -94.0753 93° East 453 521 37,000  Level Kansas City Center
Wed 08:05:13 PM 40.1767 -93.9122 92° East 453 521 37,000  Level Kansas City Center
Wed 08:06:15 PM 40.1714 -93.7172 92° East 448 516 37,000  Level Kansas City Center
Wed 08:07:17 PM 40.1664 -93.5594 92° East 446 513 37,000  Level Kansas City Center
Wed 08:08:19 PM 40.1628 -93.4000 92° East 445 512 37,000  Level Kansas City Center
Wed 08:09:20 PM 40.1842 -93.2411 80° East 449 517 37,000  Level Kansas City Center
Wed 08:10:22 PM 40.2100 -93.0853 78° East 442 509 37,000  Level Kansas City Center
Wed 08:11:24 PM 40.2386 -92.9019 78° East 444 511 37,000  Level Kansas City Center
Wed 08:12:25 PM 40.2622 -92.7511 78° East 443 510 37,000  Level Kansas City Center
Wed 08:13:27 PM 40.2911 -92.5753 78° East 442 509 37,000  Level Kansas City Center
Wed 08:14:29 PM 40.3158 -92.4242 78° East 443 510 37,000 -97 Level Kansas City Center
Wed 08:15:31 PM 40.3389 -92.2492 80° East 450 518 36,800 -585 Descending Kansas City Center
Wed 08:16:32 PM 40.3628 -92.0914 79° East 446 513 35,800 -976 Descending Kansas City Center
Wed 08:17:34 PM 40.3847 -91.9353 79° East 442 509 34,800 -919 Descending Kansas City Center
Wed 08:18:36 PM 40.4078 -91.7786 79° East 441 507 33,900 -927 Descending Kansas City Center
Wed 08:19:37 PM 40.4300 -91.6219 79° East 441 507 32,900 -989 Descending Kansas City Center
Wed 08:20:07 PM 40.4450 -91.5275 78° East 441 507 32,400 -978 Descending Chicago Center
Wed 08:21:09 PM 40.4669 -91.3697 80° East 444 511 31,400 -677 Descending Chicago Center
Wed 08:22:11 PM 40.4906 -91.2042 79° East 450 518 31,000 -194 Descending Chicago Center
Wed 08:23:13 PM 40.5122 -91.0422 80° East 450 518 31,000  Level Chicago Center
Wed 08:25:17 PM 40.5631 -90.6828 79° East 455 524 31,000  Level Chicago Center
Wed 08:26:19 PM 40.5839 -90.5206 80° East 451 519 31,000  Level Chicago Center
Wed 08:27:21 PM 40.6056 -90.3583 80° East 451 519 31,000  Level Chicago Center
Wed 08:28:23 PM 40.6283 -90.1925 80° East 448 516 31,000 -240 Level Chicago Center
Wed 08:29:26 PM 40.6492 -90.0322 80° East 447 514 30,500 -1,008 Descending Chicago Center
Wed 08:30:28 PM 40.6689 -89.8675 81° East 457 526 28,900 -2,855 Descending Chicago Center
Wed 08:31:30 PM 40.7233 -89.6842 69° East 455 524 24,600 -3,484 Descending Chicago Center
Wed 08:32:32 PM 40.7861 -89.5425 60° Northeast 452 520 21,700 -2,613 Descending Chicago Center
Wed 08:33:34 PM 40.8408 -89.4219 59° Northeast 437 503 19,200 -2,323 Descending Chicago Center
Wed 08:34:36 PM 40.9067 -89.2664 61° Northeast 405 466 16,900 -1,452 Descending Chicago Center
Wed 08:35:38 PM 40.9614 -89.1364 61° Northeast 405 466 16,200 -823 Descending Chicago Center
Wed 08:36:40 PM 41.0211 -88.9961 61° Northeast 403 464 15,200 -1,016 Descending Chicago Center
Wed 08:37:42 PM 41.0739 -88.8711 61° Northeast 394 453 14,100 -968 Descending Chicago Center
Wed 08:38:44 PM 41.1244 -88.7481 61° Northeast 383 441 13,200 -1,258 Descending Chicago Center
Wed 08:39:46 PM 41.1886 -88.6419 51° Northeast 376 433 11,500 -1,694 Descending Chicago Center
Wed 08:40:48 PM 41.2717 -88.5678 34° Northeast 360 414 9,700 -2,032 Descending Chicago Center
Wed 08:41:50 PM 41.3533 -88.4961 33° Northeast 301 346 7,300 -1,776 Descending Chicago Center
Wed 08:42:53 PM 41.3972 -88.4125 55° Northeast 286 329 6,000 -672 Descending Chicago Center
Wed 08:43:55 PM 41.4300 -88.3183 65° Northeast 282 325 5,900 -194 Descending Chicago Center
Wed 08:44:57 PM 41.4642 -88.2239 64° Northeast 283 326 5,600 -484 Descending Chicago Center
Wed 08:45:59 PM 41.4978 -88.1317 64° Northeast 276 318 4,900 -339 Descending Chicago Center
Wed 08:47:01 PM 41.5306 -88.0364 65° Northeast 279 321 4,900 -242 Level Chicago Center
Wed 08:48:03 PM 41.5500 -87.9378 75° East 276 318 4,400 -823 Descending Chicago Center
Wed 08:49:05 PM 41.5717 -87.8425 73° East 272 313 3,200 -968 Descending Chicago Center
Wed 08:50:07 PM 41.6092 -87.7381 64° Northeast 275 316 2,400 -387 Descending Chicago Center
Wed 08:51:09 PM 41.6728 -87.6900 29° Northeast 269 310 2,400 -194 Level Chicago Center
Wed 08:52:11 PM 41.7375 -87.6575 21° North 263 303 2,000 -339 Descending Chicago Center
Wed 08:53:13 PM 41.7917 -87.6864 338° Northwest 232 267 1,700 -484 Descending Chicago Center
Wed 08:54:15 PM 41.8081 -87.7275 298° West 169 194 1,000 -677 Descending Chicago Center

Login

Don't have an account? Register now (free) for customized features, flight alerts, and more!